Time;durP1;ratioP1;P1;durP2;ratioP2;P2;SDS_P1;SDS_P2;PMS_P1;PMS_P2;Temp;Humidity;BMP_temperature;BMP_pressure;BME280_temperature;BME280_humidity;BME280_pressure;Samples;Min_cycle;Max_cycle;Signal;HPM_P1;HPM_P2
2024/01/16 00:09:06;;;;;;;11.40;7.60;;;;;;;-0.94;86.80;96758.70;435321;1250;99100;-38
2024/01/16 00:19:14;;;;;;;14.90;8.30;;;;;;;-1.02;87.10;96773.64;435316;1256;109507;-40
2024/01/16 00:29:21;;;;;;;21.50;11.10;;;;;;;-1.07;87.22;96785.18;435417;1256;98842;-40
2024/01/16 00:39:29;;;;;;;11.50;6.80;;;;;;;-1.12;87.82;96819.79;435328;1256;99192;-39
2024/01/16 00:49:37;;;;;;;6.80;4.10;;;;;;;-1.28;87.72;96839.27;434860;1250;474162;-39
2024/01/16 00:59:44;;;;;;;11.80;4.30;;;;;;;-1.46;87.92;96855.77;435492;1256;98015;-39
2024/01/16 01:09:52;;;;;;;12.40;4.90;;;;;;;-1.68;88.65;96869.20;435991;1256;112163;-38
2024/01/16 01:19:58;;;;;;;9.00;2.80;;;;;;;-1.93;88.66;96881.30;435300;1256;107507;-40
2024/01/16 01:40:12;;;;;;;8.50;3.20;;;;;;;-1.94;88.76;96882.97;435334;1256;110420;-38
2024/01/16 01:50:20;;;;;;;8.80;5.20;;;;;;;-1.83;88.94;96881.60;435354;1255;108749;-39
2024/01/16 02:00:26;;;;;;;12.90;6.30;;;;;;;-1.80;88.95;96904.60;435052;1255;98811;-37
2024/01/16 02:10:33;;;;;;;14.40;7.10;;;;;;;-1.82;89.01;96919.94;435346;1256;111544;-39
2024/01/16 02:20:40;;;;;;;11.60;5.70;;;;;;;-1.86;89.19;96945.55;435474;1254;110053;-37
2024/01/16 02:30:47;;;;;;;7.00;4.50;;;;;;;-1.87;88.83;96951.36;435192;1256;99346;-39
2024/01/16 02:40:53;;;;;;;8.00;3.70;;;;;;;-1.91;88.78;96958.27;435298;1256;111594;-39
2024/01/16 02:51:02;;;;;;;5.50;3.30;;;;;;;-1.91;88.96;96961.02;435893;1255;107675;-40
2024/01/16 03:01:09;;;;;;;11.80;4.00;;;;;;;-1.92;88.98;96980.77;435203;1257;98000;-39
2024/01/16 03:21:22;;;;;;;18.60;7.80;;;;;;;-2.19;88.89;97012.84;435017;1251;98302;-38
2024/01/16 03:31:29;;;;;;;15.80;5.90;;;;;;;-2.37;89.09;97021.87;435061;1255;110752;-42
2024/01/16 03:41:36;;;;;;;17.30;7.40;;;;;;;-2.40;89.14;97026.17;435101;1251;110399;-39
2024/01/16 03:51:46;;;;;;;15.90;6.20;;;;;;;-2.40;88.83;97039.91;435221;1251;98034;-38
2024/01/16 04:01:53;;;;;;;13.50;9.10;;;;;;;-2.45;88.92;97060.39;435254;1251;106678;-39
2024/01/16 04:11:59;;;;;;;17.30;7.00;;;;;;;-2.54;89.02;97067.08;435157;1251;98577;-39
2024/01/16 04:22:06;;;;;;;12.80;9.80;;;;;;;-2.62;89.23;97069.84;435051;1257;111032;-39
2024/01/16 04:32:12;;;;;;;16.50;8.60;;;;;;;-2.76;89.17;97073.34;435215;1251;107505;-39
2024/01/16 04:42:19;;;;;;;16.80;12.10;;;;;;;-2.94;88.73;97082.70;435233;1251;99224;-38
2024/01/16 04:52:26;;;;;;;13.70;8.30;;;;;;;-3.08;88.64;97082.80;435219;1251;111288;-38
2024/01/16 05:02:33;;;;;;;10.10;6.80;;;;;;;-3.05;89.02;97099.92;435057;1257;108935;-39
2024/01/16 05:12:39;;;;;;;15.50;6.40;;;;;;;-3.05;89.05;97118.48;435338;1256;97976;-41
2024/01/16 05:22:46;;;;;;;13.20;5.30;;;;;;;-3.07;88.97;97138.41;435195;1251;111785;-39
2024/01/16 05:32:53;;;;;;;10.30;5.00;;;;;;;-3.14;89.12;97152.64;435262;1251;108495;-39
2024/01/16 05:53:05;;;;;;;12.50;6.40;;;;;;;-3.22;88.84;97172.31;435187;1256;108854;-39
2024/01/16 06:03:12;;;;;;;15.90;6.70;;;;;;;-3.22;89.11;97175.77;435208;1251;99326;-39
2024/01/16 06:13:19;;;;;;;15.70;6.90;;;;;;;-3.19;89.28;97183.68;435362;1257;110985;-39
2024/01/16 06:23:26;;;;;;;17.10;7.90;;;;;;;-3.27;89.12;97217.09;435157;1256;107980;-38
2024/01/16 06:33:33;;;;;;;12.00;5.30;;;;;;;-3.33;89.19;97249.77;435178;1251;99236;-38
2024/01/16 06:43:40;;;;;;;12.30;7.70;;;;;;;-3.29;89.35;97268.64;435074;1257;109003;-39
2024/01/16 06:53:47;;;;;;;15.50;7.90;;;;;;;-3.15;89.40;97286.27;435190;1274;99338;-39
2024/01/16 07:03:55;;;;;;;8.60;6.20;;;;;;;-3.07;89.28;97302.14;435284;1251;111355;-39
2024/01/16 07:14:03;;;;;;;18.90;9.30;;;;;;;-3.03;89.49;97317.17;435251;1251;109685;-39
2024/01/16 07:24:09;;;;;;;33.00;13.40;;;;;;;-3.04;89.54;97333.42;435355;1251;99241;-39
2024/01/16 07:34:19;;;;;;;29.10;13.20;;;;;;;-2.86;89.56;97343.13;435157;1256;110961;-40
2024/01/16 07:54:33;;;;;;;28.30;14.00;;;;;;;-2.74;89.58;97373.13;435207;1256;98003;-39
2024/01/16 08:04:39;;;;;;;24.10;10.00;;;;;;;-2.65;89.42;97383.32;435222;1251;112053;-40
2024/01/16 08:14:46;;;;;;;20.70;9.30;;;;;;;-2.43;89.22;97401.28;435130;1251;108036;-40
2024/01/16 08:24:53;;;;;;;28.50;13.40;;;;;;;-2.30;89.21;97410.67;436035;1255;99243;-40
2024/01/16 08:35:00;;;;;;;39.80;22.90;;;;;;;-2.24;89.56;97420.31;435301;1251;107563;-40
2024/01/16 08:55:13;;;;;;;23.10;12.00;;;;;;;-1.59;89.36;97441.66;435244;1251;110267;-39
2024/01/16 09:05:18;;;;;;;34.50;17.00;;;;;;;-1.46;88.88;97452.58;435122;1256;99220;-39
2024/01/16 09:15:25;;;;;;;17.40;9.10;;;;;;;-1.26;88.94;97455.16;435280;1251;98698;-39
2024/01/16 09:25:32;;;;;;;13.50;9.50;;;;;;;-1.16;88.70;97465.76;435419;1256;111986;-39
2024/01/16 09:35:38;;;;;;;18.80;9.50;;;;;;;-0.86;88.66;97463.38;435156;1251;107168;-39
2024/01/16 09:45:46;;;;;;;34.80;14.40;;;;;;;-0.21;89.01;97476.05;435153;1252;99227;-37
2024/01/16 09:55:50;;;;;;;15.30;8.70;;;;;;;-0.11;88.45;97486.49;435057;1256;111212;-39
2024/01/16 10:05:59;;;;;;;16.20;5.90;;;;;;;-0.24;88.31;97487.45;435281;1256;99499;-39
2024/01/16 10:16:07;;;;;;;13.70;6.30;;;;;;;-0.24;88.12;97494.53;435229;1255;98720;-39
2024/01/16 10:26:15;;;;;;;12.80;5.80;;;;;;;-0.19;87.89;97502.48;435260;1252;112899;-38
2024/01/16 10:36:25;;;;;;;9.90;5.40;;;;;;;-0.39;87.32;97515.27;435272;1253;107600;-39
2024/01/16 10:46:32;;;;;;;11.60;4.10;;;;;;;-0.22;87.45;97519.73;435110;1251;98012;-41
2024/01/16 10:56:42;;;;;;;11.20;8.50;;;;;;;-0.28;87.12;97532.06;435350;1256;108215;-39
2024/01/16 11:16:52;;;;;;;10.20;4.40;;;;;;;-0.67;86.81;97547.34;435268;1256;111030;-40
2024/01/16 11:27:00;;;;;;;7.60;4.40;;;;;;;-0.61;86.79;97563.02;435196;1255;108600;-38
2024/01/16 11:37:05;;;;;;;10.70;5.20;;;;;;;-0.59;86.94;97567.27;435369;1256;99256;-39
2024/01/16 11:57:47;;;;;;;13.20;5.80;;;;;;;-0.24;86.78;97572.63;435308;1255;98652;-38
2024/01/16 12:58:32;;;;;;;15.10;7.50;;;;;;;-0.67;86.23;97600.34;435392;1255;404626;-40
2024/01/16 13:08:38;;;;;;;8.60;5.00;;;;;;;-0.79;85.94;97610.25;435826;1253;108982;-40
2024/01/16 13:18:45;;;;;;;27.30;14.90;;;;;;;-0.63;86.10;97607.29;435399;1251;99264;-39
2024/01/16 13:28:51;;;;;;;19.70;11.00;;;;;;;-0.49;86.31;97615.14;436014;1256;111918;-39
2024/01/16 13:38:58;;;;;;;97.50;31.30;;;;;;;-0.74;86.18;97625.57;435347;1253;108832;-39
2024/01/16 13:49:06;;;;;;;30.70;13.40;;;;;;;-1.18;86.06;97639.23;435150;1256;97949;-39
2024/01/16 13:59:13;;;;;;;19.90;10.80;;;;;;;-1.38;86.33;97655.61;435282;1255;111957;-42
2024/01/16 14:09:21;;;;;;;15.60;8.10;;;;;;;-1.37;86.55;97665.16;435007;1255;107347;-39
2024/01/16 14:19:29;;;;;;;21.70;12.70;;;;;;;-1.27;86.53;97672.84;435110;1256;99306;-39
2024/01/16 14:39:40;;;;;;;22.70;12.80;;;;;;;-1.60;86.44;97696.55;435129;1255;117709;-39
2024/01/16 14:49:48;;;;;;;65.80;36.40;;;;;;;-1.95;86.05;97702.87;435217;1256;115528;-39
2024/01/16 14:59:55;;;;;;;98.70;46.90;;;;;;;-2.29;85.89;97710.58;435158;1251;107730;-39
2024/01/16 15:10:01;;;;;;;44.70;20.90;;;;;;;-2.64;86.08;97721.20;435180;1251;99300;-39
2024/01/16 15:20:11;;;;;;;36.50;19.30;;;;;;;-2.94;86.10;97736.66;435266;1252;111748;-40
2024/01/16 15:40:23;;;;;;;37.60;19.00;;;;;;;-3.26;86.26;97765.02;435100;1254;99250;-38
2024/01/16 15:50:32;;;;;;;74.20;33.40;;;;;;;-3.49;86.20;97779.49;435275;1255;108540;-39
2024/01/16 16:10:46;;;;;;;80.60;35.80;;;;;;;-4.11;86.39;97810.05;435214;1253;111045;-40
2024/01/16 16:51:12;;;;;;;114.60;64.10;;;;;;;-3.75;87.37;97837.67;435157;1251;99307;-39
2024/01/16 17:01:19;;;;;;;119.80;54.90;;;;;;;-3.49;87.78;97847.18;435156;1256;112165;-40
2024/01/16 17:21:33;;;;;;;104.30;46.00;;;;;;;-3.28;87.71;97853.24;435475;1255;99257;-40
2024/01/16 17:31:41;;;;;;;93.50;40.80;;;;;;;-3.35;87.87;97859.05;435294;1256;111458;-39
2024/01/16 17:41:47;;;;;;;72.20;33.90;;;;;;;-3.51;87.67;97863.95;435197;1255;108851;-39
2024/01/16 17:51:54;;;;;;;55.40;27.50;;;;;;;-3.55;87.99;97866.61;435262;1256;99240;-39
2024/01/16 18:02:01;;;;;;;48.50;26.40;;;;;;;-3.56;87.85;97864.79;435066;1256;111494;-39
2024/01/16 18:12:07;;;;;;;46.40;27.80;;;;;;;-3.65;87.60;97861.81;435221;1256;107993;-39
2024/01/16 18:22:13;;;;;;;67.90;30.50;;;;;;;-3.73;87.69;97872.59;435191;1256;98543;-39
2024/01/16 18:32:20;;;;;;;78.00;36.10;;;;;;;-3.72;88.03;97876.76;435267;1255;108171;-39
2024/01/16 18:42:27;;;;;;;67.00;29.50;;;;;;;-3.71;88.24;97870.48;435150;1253;99346;-39
2024/01/16 19:02:39;;;;;;;74.90;33.60;;;;;;;-3.79;88.42;97872.52;435049;1256;108956;-39
2024/01/16 19:53:11;;;;;;;300.60;115.70;;;;;;;-4.15;88.14;97912.70;435111;1253;108057;-39
2024/01/16 20:03:18;;;;;;;213.00;85.00;;;;;;;-4.28;88.48;97923.20;435253;1255;99230;-38
2024/01/16 20:13:26;;;;;;;191.70;75.80;;;;;;;-4.40;88.66;97920.91;435190;1254;106845;-40
2024/01/16 20:33:40;;;;;;;119.30;56.10;;;;;;;-4.45;88.86;97918.63;435199;1257;110581;-39
2024/01/16 20:43:47;;;;;;;93.40;47.60;;;;;;;-4.49;88.95;97920.57;435587;1256;107654;-39
2024/01/16 20:53:54;;;;;;;127.00;52.10;;;;;;;-4.57;88.93;97921.27;435038;1256;98919;-40
2024/01/16 21:04:01;;;;;;;148.70;63.70;;;;;;;-4.69;89.26;97917.08;435210;1256;108634;-39
2024/01/16 21:14:09;;;;;;;159.40;69.00;;;;;;;-4.85;89.28;97923.66;435195;1256;99231;-39
2024/01/16 21:24:16;;;;;;;144.40;65.70;;;;;;;-5.02;89.32;97925.80;435297;1255;111731;-41
2024/01/16 21:54:36;;;;;;;199.00;104.90;;;;;;;-5.20;89.06;97887.75;435011;1256;108021;-39
2024/01/16 22:14:53;;;;;;;160.90;77.90;;;;;;;-5.54;89.37;97887.35;435242;1255;110916;-41
2024/01/16 22:25:00;;;;;;;187.40;82.30;;;;;;;-5.79;89.33;97885.77;435264;1252;106824;-39
2024/01/16 22:35:08;;;;;;;126.70;58.90;;;;;;;-6.00;89.37;97880.84;435199;1256;99319;-40
2024/01/16 22:45:17;;;;;;;121.50;62.20;;;;;;;-6.03;89.45;97874.19;435216;1256;111641;-40
2024/01/16 22:55:25;;;;;;;93.50;54.40;;;;;;;-6.07;89.30;97867.04;435164;1256;107344;-39
2024/01/16 23:05:29;;;;;;;87.90;46.80;;;;;;;-6.08;89.42;97863.92;435100;1257;99225;-40
2024/01/16 23:25:45;;;;;;;97.00;45.40;;;;;;;-6.06;89.69;97845.14;435050;1251;98386;-40
2024/01/16 23:35:51;;;;;;;87.20;44.80;;;;;;;-6.13;89.39;97838.27;435182;1251;111525;-40
2024/01/16 23:56:06;;;;;;;94.80;46.20;;;;;;;-6.37;89.28;97831.29;435242;1251;98534;-39
